sensor_id;sensor_type;location;lat;lon;timestamp;P1;durP1;ratioP1;P2;durP2;ratioP2
16294;SDS011;8255;49.560;8.244;2022-07-19T00:01:38;5.07;;;2.22;;
16294;SDS011;8255;49.560;8.244;2022-07-19T00:04:05;3.35;;;2.63;;
16294;SDS011;8255;49.560;8.244;2022-07-19T00:06:31;2.78;;;2.53;;
16294;SDS011;8255;49.560;8.244;2022-07-19T00:08:58;6.13;;;2.67;;
16294;SDS011;8255;49.560;8.244;2022-07-19T00:11:26;3.63;;;2.72;;
16294;SDS011;8255;49.560;8.244;2022-07-19T00:13:52;2.70;;;2.50;;
16294;SDS011;8255;49.560;8.244;2022-07-19T00:16:18;2.80;;;2.50;;
16294;SDS011;8255;49.560;8.244;2022-07-19T00:18:45;3.17;;;2.88;;
16294;SDS011;8255;49.560;8.244;2022-07-19T00:21:11;3.20;;;2.60;;
16294;SDS011;8255;49.560;8.244;2022-07-19T00:23:37;2.75;;;2.55;;
16294;SDS011;8255;49.560;8.244;2022-07-19T00:26:04;2.65;;;2.35;;
16294;SDS011;8255;49.560;8.244;2022-07-19T00:28:32;2.70;;;2.53;;
16294;SDS011;8255;49.560;8.244;2022-07-19T00:30:58;2.88;;;2.35;;
16294;SDS011;8255;49.560;8.244;2022-07-19T00:33:25;2.30;;;2.20;;
16294;SDS011;8255;49.560;8.244;2022-07-19T00:35:51;4.15;;;2.60;;
16294;SDS011;8255;49.560;8.244;2022-07-19T00:38:18;2.70;;;2.53;;
16294;SDS011;8255;49.560;8.244;2022-07-19T00:40:44;2.78;;;2.25;;
16294;SDS011;8255;49.560;8.244;2022-07-19T00:43:11;3.75;;;2.30;;
16294;SDS011;8255;49.560;8.244;2022-07-19T00:45:39;2.60;;;2.50;;
16294;SDS011;8255;49.560;8.244;2022-07-19T00:48:05;2.63;;;2.20;;
16294;SDS011;8255;49.560;8.244;2022-07-19T00:50:32;2.53;;;2.42;;
16294;SDS011;8255;49.560;8.244;2022-07-19T00:52:59;4.03;;;2.53;;
16294;SDS011;8255;49.560;8.244;2022-07-19T00:55:28;5.45;;;2.58;;
16294;SDS011;8255;49.560;8.244;2022-07-19T00:57:55;2.90;;;2.35;;
16294;SDS011;8255;49.560;8.244;2022-07-19T01:00:21;4.85;;;2.50;;
16294;SDS011;8255;49.560;8.244;2022-07-19T01:02:49;2.80;;;2.50;;
16294;SDS011;8255;49.560;8.244;2022-07-19T01:05:17;2.47;;;2.28;;
16294;SDS011;8255;49.560;8.244;2022-07-19T01:07:44;3.38;;;2.53;;
16294;SDS011;8255;49.560;8.244;2022-07-19T01:10:11;5.07;;;2.60;;
16294;SDS011;8255;49.560;8.244;2022-07-19T01:12:38;2.42;;;2.22;;
16294;SDS011;8255;49.560;8.244;2022-07-19T01:15:11;2.63;;;2.42;;
16294;SDS011;8255;49.560;8.244;2022-07-19T01:17:39;2.70;;;2.50;;
16294;SDS011;8255;49.560;8.244;2022-07-19T01:20:07;5.55;;;2.55;;
16294;SDS011;8255;49.560;8.244;2022-07-19T01:22:35;2.50;;;2.28;;
16294;SDS011;8255;49.560;8.244;2022-07-19T01:25:02;2.78;;;2.58;;
16294;SDS011;8255;49.560;8.244;2022-07-19T01:27:28;2.90;;;2.47;;
16294;SDS011;8255;49.560;8.244;2022-07-19T01:29:55;3.03;;;2.55;;
16294;SDS011;8255;49.560;8.244;2022-07-19T01:32:21;2.67;;;2.40;;
16294;SDS011;8255;49.560;8.244;2022-07-19T01:34:48;3.10;;;2.40;;
16294;SDS011;8255;49.560;8.244;2022-07-19T01:37:14;3.35;;;2.45;;
16294;SDS011;8255;49.560;8.244;2022-07-19T01:39:42;3.25;;;2.55;;
16294;SDS011;8255;49.560;8.244;2022-07-19T01:42:08;2.80;;;2.60;;
16294;SDS011;8255;49.560;8.244;2022-07-19T01:44:35;3.38;;;2.58;;
16294;SDS011;8255;49.560;8.244;2022-07-19T01:47:01;2.55;;;2.45;;
16294;SDS011;8255;49.560;8.244;2022-07-19T01:49:27;3.28;;;2.55;;
16294;SDS011;8255;49.560;8.244;2022-07-19T01:51:54;3.22;;;2.92;;
16294;SDS011;8255;49.560;8.244;2022-07-19T01:54:20;4.80;;;3.20;;
16294;SDS011;8255;49.560;8.244;2022-07-19T01:56:48;5.22;;;3.78;;
16294;SDS011;8255;49.560;8.244;2022-07-19T01:59:14;3.92;;;3.63;;
16294;SDS011;8255;49.560;8.244;2022-07-19T02:01:41;5.68;;;3.60;;
16294;SDS011;8255;49.560;8.244;2022-07-19T02:04:07;3.80;;;3.50;;
16294;SDS011;8255;49.560;8.244;2022-07-19T02:06:33;4.32;;;3.80;;
16294;SDS011;8255;49.560;8.244;2022-07-19T02:09:00;4.35;;;3.95;;
16294;SDS011;8255;49.560;8.244;2022-07-19T02:11:26;4.82;;;3.50;;
16294;SDS011;8255;49.560;8.244;2022-07-19T02:14:03;3.92;;;3.33;;
16294;SDS011;8255;49.560;8.244;2022-07-19T02:16:30;4.45;;;3.10;;
16294;SDS011;8255;49.560;8.244;2022-07-19T02:18:56;3.67;;;3.33;;
16294;SDS011;8255;49.560;8.244;2022-07-19T02:21:22;3.25;;;3.05;;
16294;SDS011;8255;49.560;8.244;2022-07-19T02:23:49;4.45;;;3.03;;
16294;SDS011;8255;49.560;8.244;2022-07-19T02:26:15;3.20;;;2.90;;
16294;SDS011;8255;49.560;8.244;2022-07-19T02:28:42;3.33;;;3.03;;
16294;SDS011;8255;49.560;8.244;2022-07-19T02:31:09;3.50;;;3.10;;
16294;SDS011;8255;49.560;8.244;2022-07-19T02:33:36;3.10;;;2.90;;
16294;SDS011;8255;49.560;8.244;2022-07-19T02:36:02;3.30;;;3.00;;
16294;SDS011;8255;49.560;8.244;2022-07-19T02:38:29;2.80;;;2.60;;
16294;SDS011;8255;49.560;8.244;2022-07-19T02:40:55;2.83;;;2.63;;
16294;SDS011;8255;49.560;8.244;2022-07-19T02:43:22;3.17;;;2.90;;
16294;SDS011;8255;49.560;8.244;2022-07-19T02:45:48;2.70;;;2.50;;
16294;SDS011;8255;49.560;8.244;2022-07-19T02:48:16;2.85;;;2.65;;
16294;SDS011;8255;49.560;8.244;2022-07-19T02:50:42;4.05;;;3.10;;
16294;SDS011;8255;49.560;8.244;2022-07-19T02:53:08;4.13;;;2.67;;
16294;SDS011;8255;49.560;8.244;2022-07-19T02:55:35;4.18;;;2.75;;
16294;SDS011;8255;49.560;8.244;2022-07-19T02:58:01;3.40;;;2.83;;
16294;SDS011;8255;49.560;8.244;2022-07-19T03:00:28;2.88;;;2.63;;
16294;SDS011;8255;49.560;8.244;2022-07-19T03:02:54;3.15;;;2.60;;
16294;SDS011;8255;49.560;8.244;2022-07-19T03:05:22;5.00;;;2.60;;
16294;SDS011;8255;49.560;8.244;2022-07-19T03:07:48;2.63;;;2.28;;
16294;SDS011;8255;49.560;8.244;2022-07-19T03:10:15;3.42;;;2.40;;
16294;SDS011;8255;49.560;8.244;2022-07-19T03:12:41;2.70;;;2.50;;
16294;SDS011;8255;49.560;8.244;2022-07-19T03:15:08;2.78;;;2.58;;
16294;SDS011;8255;49.560;8.244;2022-07-19T03:17:34;4.07;;;2.92;;
16294;SDS011;8255;49.560;8.244;2022-07-19T03:20:00;2.72;;;2.60;;
16294;SDS011;8255;49.560;8.244;2022-07-19T03:22:28;2.90;;;2.35;;
16294;SDS011;8255;49.560;8.244;2022-07-19T03:24:55;2.92;;;2.72;;
16294;SDS011;8255;49.560;8.244;2022-07-19T03:27:22;2.92;;;2.72;;
16294;SDS011;8255;49.560;8.244;2022-07-19T03:29:48;3.10;;;2.70;;
16294;SDS011;8255;49.560;8.244;2022-07-19T03:32:14;2.65;;;2.55;;
16294;SDS011;8255;49.560;8.244;2022-07-19T03:34:41;4.05;;;2.70;;
16294;SDS011;8255;49.560;8.244;2022-07-19T03:37:08;4.15;;;2.70;;
16294;SDS011;8255;49.560;8.244;2022-07-19T03:39:36;3.00;;;2.47;;
16294;SDS011;8255;49.560;8.244;2022-07-19T03:42:02;5.18;;;2.80;;
16294;SDS011;8255;49.560;8.244;2022-07-19T03:44:29;3.22;;;2.95;;
16294;SDS011;8255;49.560;8.244;2022-07-19T03:46:56;5.68;;;3.08;;
16294;SDS011;8255;49.560;8.244;2022-07-19T03:49:22;4.05;;;2.88;;
16294;SDS011;8255;49.560;8.244;2022-07-19T03:51:48;3.45;;;2.75;;
16294;SDS011;8255;49.560;8.244;2022-07-19T03:54:15;5.00;;;3.13;;
16294;SDS011;8255;49.560;8.244;2022-07-19T03:56:43;3.80;;;2.97;;
16294;SDS011;8255;49.560;8.244;2022-07-19T03:59:09;4.22;;;3.10;;
16294;SDS011;8255;49.560;8.244;2022-07-19T04:01:35;3.38;;;3.08;;
16294;SDS011;8255;49.560;8.244;2022-07-19T04:04:03;3.92;;;3.13;;
16294;SDS011;8255;49.560;8.244;2022-07-19T04:06:29;3.60;;;3.30;;
16294;SDS011;8255;49.560;8.244;2022-07-19T04:08:56;7.00;;;4.00;;
16294;SDS011;8255;49.560;8.244;2022-07-19T04:11:22;5.68;;;3.67;;
16294;SDS011;8255;49.560;8.244;2022-07-19T04:13:50;4.05;;;3.50;;
16294;SDS011;8255;49.560;8.244;2022-07-19T04:16:16;8.43;;;3.90;;
16294;SDS011;8255;49.560;8.244;2022-07-19T04:18:43;5.60;;;4.15;;
16294;SDS011;8255;49.560;8.244;2022-07-19T04:21:09;6.50;;;4.00;;
16294;SDS011;8255;49.560;8.244;2022-07-19T04:23:35;6.10;;;3.55;;
16294;SDS011;8255;49.560;8.244;2022-07-19T04:26:02;4.72;;;3.85;;
16294;SDS011;8255;49.560;8.244;2022-07-19T04:28:28;4.55;;;3.42;;
16294;SDS011;8255;49.560;8.244;2022-07-19T04:30:56;4.32;;;3.42;;
16294;SDS011;8255;49.560;8.244;2022-07-19T04:33:22;3.72;;;3.40;;
16294;SDS011;8255;49.560;8.244;2022-07-19T04:35:49;5.50;;;3.15;;
16294;SDS011;8255;49.560;8.244;2022-07-19T04:38:16;6.72;;;3.13;;
16294;SDS011;8255;49.560;8.244;2022-07-19T04:40:43;3.72;;;3.42;;
16294;SDS011;8255;49.560;8.244;2022-07-19T04:43:09;3.95;;;3.58;;
16294;SDS011;8255;49.560;8.244;2022-07-19T04:45:36;5.32;;;3.38;;
16294;SDS011;8255;49.560;8.244;2022-07-19T04:48:06;4.60;;;3.42;;
16294;SDS011;8255;49.560;8.244;2022-07-19T04:50:32;4.13;;;3.30;;
16294;SDS011;8255;49.560;8.244;2022-07-19T04:52:59;3.67;;;3.30;;
16294;SDS011;8255;49.560;8.244;2022-07-19T04:55:25;4.13;;;3.30;;
16294;SDS011;8255;49.560;8.244;2022-07-19T04:57:52;4.20;;;3.67;;
16294;SDS011;8255;49.560;8.244;2022-07-19T05:00:18;4.43;;;3.55;;
16294;SDS011;8255;49.560;8.244;2022-07-19T05:02:44;3.65;;;3.30;;
16294;SDS011;8255;49.560;8.244;2022-07-19T05:05:12;5.35;;;3.40;;
16294;SDS011;8255;49.560;8.244;2022-07-19T05:07:39;5.88;;;3.17;;
16294;SDS011;8255;49.560;8.244;2022-07-19T05:10:06;4.07;;;3.65;;
16294;SDS011;8255;49.560;8.244;2022-07-19T05:12:32;3.72;;;3.38;;
16294;SDS011;8255;49.560;8.244;2022-07-19T05:14:59;5.45;;;3.35;;
16294;SDS011;8255;49.560;8.244;2022-07-19T05:17:25;3.67;;;3.38;;
16294;SDS011;8255;49.560;8.244;2022-07-19T05:19:51;3.35;;;3.15;;
16294;SDS011;8255;49.560;8.244;2022-07-19T05:22:19;5.35;;;3.08;;
16294;SDS011;8255;49.560;8.244;2022-07-19T05:24:47;3.47;;;3.17;;
16294;SDS011;8255;49.560;8.244;2022-07-19T05:27:13;6.55;;;3.17;;
16294;SDS011;8255;49.560;8.244;2022-07-19T05:29:40;3.63;;;3.33;;
16294;SDS011;8255;49.560;8.244;2022-07-19T05:32:06;3.70;;;3.35;;
16294;SDS011;8255;49.560;8.244;2022-07-19T05:34:33;3.90;;;3.60;;
16294;SDS011;8255;49.560;8.244;2022-07-19T05:36:59;3.30;;;2.95;;
16294;SDS011;8255;49.560;8.244;2022-07-19T05:39:27;6.60;;;3.60;;
16294;SDS011;8255;49.560;8.244;2022-07-19T05:41:53;5.70;;;3.40;;
16294;SDS011;8255;49.560;8.244;2022-07-19T05:44:19;4.05;;;3.65;;
16294;SDS011;8255;49.560;8.244;2022-07-19T05:46:47;6.47;;;3.55;;
16294;SDS011;8255;49.560;8.244;2022-07-19T05:49:13;4.22;;;3.83;;
16294;SDS011;8255;49.560;8.244;2022-07-19T05:51:40;8.25;;;4.15;;
16294;SDS011;8255;49.560;8.244;2022-07-19T05:54:07;6.43;;;4.25;;
16294;SDS011;8255;49.560;8.244;2022-07-19T05:56:35;5.32;;;4.00;;
16294;SDS011;8255;49.560;8.244;2022-07-19T05:59:01;4.38;;;3.70;;
16294;SDS011;8255;49.560;8.244;2022-07-19T06:01:28;4.90;;;4.40;;
16294;SDS011;8255;49.560;8.244;2022-07-19T06:03:55;4.97;;;4.28;;
16294;SDS011;8255;49.560;8.244;2022-07-19T06:06:22;4.93;;;3.78;;
16294;SDS011;8255;49.560;8.244;2022-07-19T06:08:49;6.47;;;3.75;;
16294;SDS011;8255;49.560;8.244;2022-07-19T06:11:16;6.45;;;3.70;;
16294;SDS011;8255;49.560;8.244;2022-07-19T06:13:44;7.03;;;3.63;;
16294;SDS011;8255;49.560;8.244;2022-07-19T06:16:11;6.55;;;3.88;;
16294;SDS011;8255;49.560;8.244;2022-07-19T06:18:38;7.82;;;4.13;;
16294;SDS011;8255;49.560;8.244;2022-07-19T06:21:06;10.68;;;4.63;;
16294;SDS011;8255;49.560;8.244;2022-07-19T06:23:33;13.85;;;4.38;;
16294;SDS011;8255;49.560;8.244;2022-07-19T06:26:00;7.72;;;4.20;;
16294;SDS011;8255;49.560;8.244;2022-07-19T06:28:26;7.88;;;3.80;;
16294;SDS011;8255;49.560;8.244;2022-07-19T06:30:54;8.18;;;3.70;;
16294;SDS011;8255;49.560;8.244;2022-07-19T06:33:20;4.85;;;3.38;;
16294;SDS011;8255;49.560;8.244;2022-07-19T06:35:47;6.15;;;3.67;;
16294;SDS011;8255;49.560;8.244;2022-07-19T06:38:13;4.55;;;3.22;;
16294;SDS011;8255;49.560;8.244;2022-07-19T06:40:40;3.30;;;3.00;;
16294;SDS011;8255;49.560;8.244;2022-07-19T06:43:06;3.38;;;3.00;;
16294;SDS011;8255;49.560;8.244;2022-07-19T06:45:33;3.10;;;2.90;;
16294;SDS011;8255;49.560;8.244;2022-07-19T06:48:01;3.40;;;3.00;;
16294;SDS011;8255;49.560;8.244;2022-07-19T06:50:27;6.28;;;3.20;;
16294;SDS011;8255;49.560;8.244;2022-07-19T06:52:54;3.13;;;2.92;;
16294;SDS011;8255;49.560;8.244;2022-07-19T06:55:20;6.38;;;3.65;;
16294;SDS011;8255;49.560;8.244;2022-07-19T06:57:47;3.65;;;3.30;;
16294;SDS011;8255;49.560;8.244;2022-07-19T07:00:13;9.45;;;3.88;;
16294;SDS011;8255;49.560;8.244;2022-07-19T07:02:40;5.55;;;3.33;;
16294;SDS011;8255;49.560;8.244;2022-07-19T07:05:09;5.65;;;3.30;;
16294;SDS011;8255;49.560;8.244;2022-07-19T07:07:36;9.80;;;3.45;;
16294;SDS011;8255;49.560;8.244;2022-07-19T07:10:03;4.75;;;3.30;;
16294;SDS011;8255;49.560;8.244;2022-07-19T07:12:29;8.95;;;3.58;;
16294;SDS011;8255;49.560;8.244;2022-07-19T07:14:56;5.70;;;3.35;;
16294;SDS011;8255;49.560;8.244;2022-07-19T07:17:22;8.68;;;3.97;;
16294;SDS011;8255;49.560;8.244;2022-07-19T07:19:48;5.25;;;3.58;;
16294;SDS011;8255;49.560;8.244;2022-07-19T07:22:16;6.97;;;3.40;;
16294;SDS011;8255;49.560;8.244;2022-07-19T07:24:42;5.88;;;3.10;;
16294;SDS011;8255;49.560;8.244;2022-07-19T07:27:09;8.25;;;3.13;;
16294;SDS011;8255;49.560;8.244;2022-07-19T07:29:35;3.28;;;2.97;;
16294;SDS011;8255;49.560;8.244;2022-07-19T07:32:02;2.97;;;2.75;;
16294;SDS011;8255;49.560;8.244;2022-07-19T07:34:28;4.93;;;2.95;;
16294;SDS011;8255;49.560;8.244;2022-07-19T07:36:55;4.13;;;3.13;;
16294;SDS011;8255;49.560;8.244;2022-07-19T07:39:22;5.05;;;3.15;;
16294;SDS011;8255;49.560;8.244;2022-07-19T07:41:49;3.58;;;3.25;;
16294;SDS011;8255;49.560;8.244;2022-07-19T07:44:15;3.70;;;3.10;;
16294;SDS011;8255;49.560;8.244;2022-07-19T07:46:42;5.55;;;2.90;;
16294;SDS011;8255;49.560;8.244;2022-07-19T07:49:08;4.13;;;2.80;;
16294;SDS011;8255;49.560;8.244;2022-07-19T07:51:34;5.63;;;3.08;;
16294;SDS011;8255;49.560;8.244;2022-07-19T07:54:01;3.33;;;3.08;;
16294;SDS011;8255;49.560;8.244;2022-07-19T07:56:29;4.30;;;2.70;;
16294;SDS011;8255;49.560;8.244;2022-07-19T07:58:55;3.25;;;2.95;;
16294;SDS011;8255;49.560;8.244;2022-07-19T08:01:22;4.10;;;2.55;;
16294;SDS011;8255;49.560;8.244;2022-07-19T08:03:48;3.10;;;2.80;;
16294;SDS011;8255;49.560;8.244;2022-07-19T08:06:15;4.07;;;2.35;;
16294;SDS011;8255;49.560;8.244;2022-07-19T08:08:41;3.22;;;2.40;;
16294;SDS011;8255;49.560;8.244;2022-07-19T08:11:08;6.13;;;2.65;;
16294;SDS011;8255;49.560;8.244;2022-07-19T08:13:35;2.80;;;2.50;;
16294;SDS011;8255;49.560;8.244;2022-07-19T08:16:02;3.13;;;2.63;;
16294;SDS011;8255;49.560;8.244;2022-07-19T08:18:28;5.72;;;2.50;;
16294;SDS011;8255;49.560;8.244;2022-07-19T08:20:55;5.32;;;2.30;;
16294;SDS011;8255;49.560;8.244;2022-07-19T08:23:21;3.95;;;2.40;;
16294;SDS011;8255;49.560;8.244;2022-07-19T08:25:48;4.25;;;2.53;;
16294;SDS011;8255;49.560;8.244;2022-07-19T08:28:14;3.08;;;2.80;;
16294;SDS011;8255;49.560;8.244;2022-07-19T08:30:42;2.55;;;2.30;;
16294;SDS011;8255;49.560;8.244;2022-07-19T08:33:08;4.97;;;2.45;;
16294;SDS011;8255;49.560;8.244;2022-07-19T08:35:35;4.05;;;2.28;;
16294;SDS011;8255;49.560;8.244;2022-07-19T08:38:01;4.78;;;2.38;;
16294;SDS011;8255;49.560;8.244;2022-07-19T08:40:27;6.68;;;2.60;;
16294;SDS011;8255;49.560;8.244;2022-07-19T08:42:54;3.92;;;2.65;;
16294;SDS011;8255;49.560;8.244;2022-07-19T08:45:23;2.53;;;2.20;;
16294;SDS011;8255;49.560;8.244;2022-07-19T08:47:53;3.67;;;2.33;;
16294;SDS011;8255;49.560;8.244;2022-07-19T08:50:19;2.78;;;2.10;;
16294;SDS011;8255;49.560;8.244;2022-07-19T08:52:46;2.33;;;2.13;;
16294;SDS011;8255;49.560;8.244;2022-07-19T08:55:13;4.82;;;2.40;;
16294;SDS011;8255;49.560;8.244;2022-07-19T08:57:39;3.42;;;2.50;;
16294;SDS011;8255;49.560;8.244;2022-07-19T09:00:25;2.40;;;2.20;;
16294;SDS011;8255;49.560;8.244;2022-07-19T09:02:54;5.07;;;2.10;;
16294;SDS011;8255;49.560;8.244;2022-07-19T09:05:21;3.50;;;2.03;;
16294;SDS011;8255;49.560;8.244;2022-07-19T09:07:59;4.10;;;2.47;;
16294;SDS011;8255;49.560;8.244;2022-07-19T09:10:25;2.60;;;2.10;;
16294;SDS011;8255;49.560;8.244;2022-07-19T09:12:59;2.65;;;2.22;;
16294;SDS011;8255;49.560;8.244;2022-07-19T09:15:45;2.42;;;2.15;;
16294;SDS011;8255;49.560;8.244;2022-07-19T09:18:15;3.08;;;2.30;;
16294;SDS011;8255;49.560;8.244;2022-07-19T09:20:42;3.88;;;2.17;;
16294;SDS011;8255;49.560;8.244;2022-07-19T09:23:09;2.55;;;2.25;;
16294;SDS011;8255;49.560;8.244;2022-07-19T09:25:36;2.45;;;2.25;;
16294;SDS011;8255;49.560;8.244;2022-07-19T09:28:03;2.38;;;2.25;;
16294;SDS011;8255;49.560;8.244;2022-07-19T09:30:36;5.82;;;2.28;;
16294;SDS011;8255;49.560;8.244;2022-07-19T09:33:07;2.95;;;2.42;;
16294;SDS011;8255;49.560;8.244;2022-07-19T09:35:36;2.80;;;2.60;;
16294;SDS011;8255;49.560;8.244;2022-07-19T09:38:20;4.65;;;2.38;;
16294;SDS011;8255;49.560;8.244;2022-07-19T09:40:46;3.67;;;2.40;;
16294;SDS011;8255;49.560;8.244;2022-07-19T09:43:13;3.60;;;2.70;;
16294;SDS011;8255;49.560;8.244;2022-07-19T09:45:39;3.40;;;2.47;;
16294;SDS011;8255;49.560;8.244;2022-07-19T09:48:06;4.50;;;2.72;;
16294;SDS011;8255;49.560;8.244;2022-07-19T09:50:32;5.03;;;2.13;;
16294;SDS011;8255;49.560;8.244;2022-07-19T09:53:02;2.63;;;2.42;;
16294;SDS011;8255;49.560;8.244;2022-07-19T09:55:28;2.90;;;2.60;;
16294;SDS011;8255;49.560;8.244;2022-07-19T09:57:55;2.22;;;2.13;;
16294;SDS011;8255;49.560;8.244;2022-07-19T10:00:23;3.95;;;2.45;;
16294;SDS011;8255;49.560;8.244;2022-07-19T10:02:51;2.80;;;2.60;;
16294;SDS011;8255;49.560;8.244;2022-07-19T10:05:17;3.83;;;2.63;;
16294;SDS011;8255;49.560;8.244;2022-07-19T10:07:44;3.40;;;2.60;;
16294;SDS011;8255;49.560;8.244;2022-07-19T10:10:13;3.33;;;2.65;;
16294;SDS011;8255;49.560;8.244;2022-07-19T10:12:40;2.90;;;2.70;;
16294;SDS011;8255;49.560;8.244;2022-07-19T10:15:07;4.03;;;2.63;;
16294;SDS011;8255;49.560;8.244;2022-07-19T10:17:34;3.70;;;2.80;;
16294;SDS011;8255;49.560;8.244;2022-07-19T10:20:02;2.88;;;2.50;;
16294;SDS011;8255;49.560;8.244;2022-07-19T10:22:29;3.95;;;2.47;;
16294;SDS011;8255;49.560;8.244;2022-07-19T10:24:56;3.08;;;2.70;;
16294;SDS011;8255;49.560;8.244;2022-07-19T10:27:37;3.17;;;2.42;;
16294;SDS011;8255;49.560;8.244;2022-07-19T10:30:21;3.83;;;2.28;;
16294;SDS011;8255;49.560;8.244;2022-07-19T10:32:49;4.25;;;2.42;;
16294;SDS011;8255;49.560;8.244;2022-07-19T10:35:16;4.78;;;2.65;;
16294;SDS011;8255;49.560;8.244;2022-07-19T10:37:43;2.65;;;2.45;;
16294;SDS011;8255;49.560;8.244;2022-07-19T10:40:10;4.97;;;2.83;;
16294;SDS011;8255;49.560;8.244;2022-07-19T10:42:39;3.30;;;2.30;;
16294;SDS011;8255;49.560;8.244;2022-07-19T10:45:26;2.67;;;2.47;;
16294;SDS011;8255;49.560;8.244;2022-07-19T10:48:05;2.60;;;2.40;;
16294;SDS011;8255;49.560;8.244;2022-07-19T10:50:45;2.63;;;2.40;;
16294;SDS011;8255;49.560;8.244;2022-07-19T10:56:05;2.67;;;1.98;;
16294;SDS011;8255;49.560;8.244;2022-07-19T10:58:46;2.53;;;2.10;;
16294;SDS011;8255;49.560;8.244;2022-07-19T11:01:15;3.25;;;2.20;;
16294;SDS011;8255;49.560;8.244;2022-07-19T11:03:42;3.95;;;2.10;;
16294;SDS011;8255;49.560;8.244;2022-07-19T11:06:09;2.40;;;2.20;;
16294;SDS011;8255;49.560;8.244;2022-07-19T11:08:44;2.25;;;1.92;;
16294;SDS011;8255;49.560;8.244;2022-07-19T11:11:11;2.25;;;1.90;;
16294;SDS011;8255;49.560;8.244;2022-07-19T11:13:38;1.77;;;1.67;;
16294;SDS011;8255;49.560;8.244;2022-07-19T11:16:04;2.05;;;1.80;;
16294;SDS011;8255;49.560;8.244;2022-07-19T11:18:32;1.63;;;1.52;;
16294;SDS011;8255;49.560;8.244;2022-07-19T11:21:00;2.05;;;1.85;;
16294;SDS011;8255;49.560;8.244;2022-07-19T11:23:28;2.40;;;1.77;;
16294;SDS011;8255;49.560;8.244;2022-07-19T11:26:04;2.30;;;1.80;;
16294;SDS011;8255;49.560;8.244;2022-07-19T11:28:30;1.70;;;1.60;;
16294;SDS011;8255;49.560;8.244;2022-07-19T11:30:57;1.75;;;1.65;;
16294;SDS011;8255;49.560;8.244;2022-07-19T11:33:24;1.77;;;1.67;;
16294;SDS011;8255;49.560;8.244;2022-07-19T11:35:56;1.70;;;1.60;;
16294;SDS011;8255;49.560;8.244;2022-07-19T11:38:22;3.35;;;1.98;;
16294;SDS011;8255;49.560;8.244;2022-07-19T11:40:49;1.95;;;1.80;;
16294;SDS011;8255;49.560;8.244;2022-07-19T11:43:15;1.67;;;1.67;;
16294;SDS011;8255;49.560;8.244;2022-07-19T11:45:42;1.92;;;1.83;;
16294;SDS011;8255;49.560;8.244;2022-07-19T11:48:09;1.75;;;1.65;;
16294;SDS011;8255;49.560;8.244;2022-07-19T11:50:35;2.78;;;1.98;;
16294;SDS011;8255;49.560;8.244;2022-07-19T11:53:05;3.38;;;2.00;;
16294;SDS011;8255;49.560;8.244;2022-07-19T11:55:34;2.10;;;1.90;;
16294;SDS011;8255;49.560;8.244;2022-07-19T11:58:04;1.88;;;1.77;;
16294;SDS011;8255;49.560;8.244;2022-07-19T12:00:31;2.42;;;1.80;;
16294;SDS011;8255;49.560;8.244;2022-07-19T12:02:59;2.35;;;1.90;;
16294;SDS011;8255;49.560;8.244;2022-07-19T12:05:28;1.92;;;1.77;;
16294;SDS011;8255;49.560;8.244;2022-07-19T12:07:57;3.92;;;1.90;;
16294;SDS011;8255;49.560;8.244;2022-07-19T12:10:34;2.53;;;1.85;;
16294;SDS011;8255;49.560;8.244;2022-07-19T12:13:01;1.60;;;1.60;;
16294;SDS011;8255;49.560;8.244;2022-07-19T12:15:41;3.13;;;1.80;;
16294;SDS011;8255;49.560;8.244;2022-07-19T12:18:08;2.53;;;1.92;;
16294;SDS011;8255;49.560;8.244;2022-07-19T12:20:34;3.35;;;1.98;;
16294;SDS011;8255;49.560;8.244;2022-07-19T12:23:10;2.63;;;1.90;;
16294;SDS011;8255;49.560;8.244;2022-07-19T12:25:38;2.33;;;1.80;;
16294;SDS011;8255;49.560;8.244;2022-07-19T12:28:04;2.20;;;2.03;;
16294;SDS011;8255;49.560;8.244;2022-07-19T12:30:31;2.38;;;2.00;;
16294;SDS011;8255;49.560;8.244;2022-07-19T12:33:05;2.15;;;1.95;;
16294;SDS011;8255;49.560;8.244;2022-07-19T12:35:39;2.10;;;1.90;;
16294;SDS011;8255;49.560;8.244;2022-07-19T12:38:06;2.00;;;1.90;;
16294;SDS011;8255;49.560;8.244;2022-07-19T12:40:34;1.95;;;1.80;;
16294;SDS011;8255;49.560;8.244;2022-07-19T12:43:02;4.22;;;2.13;;
16294;SDS011;8255;49.560;8.244;2022-07-19T12:45:29;2.17;;;2.08;;
16294;SDS011;8255;49.560;8.244;2022-07-19T12:47:56;2.28;;;2.08;;
16294;SDS011;8255;49.560;8.244;2022-07-19T12:50:23;2.25;;;2.10;;
16294;SDS011;8255;49.560;8.244;2022-07-19T12:52:50;2.30;;;2.05;;
16294;SDS011;8255;49.560;8.244;2022-07-19T12:55:16;3.13;;;1.90;;
16294;SDS011;8255;49.560;8.244;2022-07-19T12:57:43;2.08;;;1.98;;
16294;SDS011;8255;49.560;8.244;2022-07-19T13:00:11;2.15;;;2.00;;
16294;SDS011;8255;49.560;8.244;2022-07-19T13:02:38;2.28;;;1.90;;
16294;SDS011;8255;49.560;8.244;2022-07-19T13:05:05;2.55;;;2.15;;
16294;SDS011;8255;49.560;8.244;2022-07-19T13:07:31;2.00;;;1.85;;
16294;SDS011;8255;49.560;8.244;2022-07-19T13:09:58;1.92;;;1.80;;
16294;SDS011;8255;49.560;8.244;2022-07-19T13:12:24;5.38;;;2.05;;
16294;SDS011;8255;49.560;8.244;2022-07-19T13:14:51;2.00;;;1.90;;
16294;SDS011;8255;49.560;8.244;2022-07-19T13:17:18;3.00;;;2.00;;
16294;SDS011;8255;49.560;8.244;2022-07-19T13:19:45;3.03;;;2.05;;
16294;SDS011;8255;49.560;8.244;2022-07-19T13:22:11;3.45;;;1.77;;
16294;SDS011;8255;49.560;8.244;2022-07-19T13:24:38;2.00;;;1.90;;
16294;SDS011;8255;49.560;8.244;2022-07-19T13:27:04;1.90;;;1.90;;
16294;SDS011;8255;49.560;8.244;2022-07-19T13:29:31;1.98;;;1.88;;
16294;SDS011;8255;49.560;8.244;2022-07-19T13:31:58;3.33;;;2.08;;
16294;SDS011;8255;49.560;8.244;2022-07-19T13:34:26;2.67;;;1.75;;
16294;SDS011;8255;49.560;8.244;2022-07-19T13:36:53;3.00;;;2.10;;
16294;SDS011;8255;49.560;8.244;2022-07-19T13:39:19;2.03;;;1.92;;
16294;SDS011;8255;49.560;8.244;2022-07-19T13:41:46;3.53;;;1.80;;
16294;SDS011;8255;49.560;8.244;2022-07-19T13:44:12;3.17;;;1.95;;
16294;SDS011;8255;49.560;8.244;2022-07-19T13:46:39;4.32;;;2.05;;
16294;SDS011;8255;49.560;8.244;2022-07-19T13:49:05;2.80;;;1.90;;
16294;SDS011;8255;49.560;8.244;2022-07-19T13:51:33;3.10;;;2.10;;
16294;SDS011;8255;49.560;8.244;2022-07-19T13:53:59;2.08;;;1.98;;
16294;SDS011;8255;49.560;8.244;2022-07-19T13:56:26;2.42;;;2.10;;
16294;SDS011;8255;49.560;8.244;2022-07-19T13:58:52;3.10;;;2.30;;
16294;SDS011;8255;49.560;8.244;2022-07-19T14:01:19;3.67;;;2.30;;
16294;SDS011;8255;49.560;8.244;2022-07-19T14:03:45;2.28;;;2.10;;
16294;SDS011;8255;49.560;8.244;2022-07-19T14:06:12;2.42;;;2.20;;
16294;SDS011;8255;49.560;8.244;2022-07-19T14:08:40;3.63;;;2.35;;
16294;SDS011;8255;49.560;8.244;2022-07-19T14:11:07;2.25;;;2.15;;
16294;SDS011;8255;49.560;8.244;2022-07-19T14:13:33;2.58;;;2.38;;
16294;SDS011;8255;49.560;8.244;2022-07-19T14:16:00;3.55;;;2.15;;
16294;SDS011;8255;49.560;8.244;2022-07-19T14:18:27;2.45;;;2.28;;
16294;SDS011;8255;49.560;8.244;2022-07-19T14:20:53;2.40;;;2.25;;
16294;SDS011;8255;49.560;8.244;2022-07-19T14:23:20;2.65;;;2.20;;
16294;SDS011;8255;49.560;8.244;2022-07-19T14:25:48;2.80;;;2.53;;
16294;SDS011;8255;49.560;8.244;2022-07-19T14:28:14;2.55;;;2.45;;
16294;SDS011;8255;49.560;8.244;2022-07-19T14:30:41;2.65;;;2.33;;
16294;SDS011;8255;49.560;8.244;2022-07-19T14:33:07;5.80;;;2.40;;
16294;SDS011;8255;49.560;8.244;2022-07-19T14:35:34;2.67;;;2.38;;
16294;SDS011;8255;49.560;8.244;2022-07-19T14:38:00;2.78;;;2.63;;
16294;SDS011;8255;49.560;8.244;2022-07-19T14:40:27;4.10;;;2.50;;
16294;SDS011;8255;49.560;8.244;2022-07-19T14:42:55;2.25;;;2.15;;
16294;SDS011;8255;49.560;8.244;2022-07-19T14:45:21;3.08;;;2.30;;
16294;SDS011;8255;49.560;8.244;2022-07-19T14:47:47;4.30;;;2.38;;
16294;SDS011;8255;49.560;8.244;2022-07-19T14:50:14;2.58;;;2.30;;
16294;SDS011;8255;49.560;8.244;2022-07-19T14:52:41;2.50;;;2.30;;
16294;SDS011;8255;49.560;8.244;2022-07-19T14:55:08;2.25;;;1.98;;
16294;SDS011;8255;49.560;8.244;2022-07-19T14:57:34;2.70;;;2.30;;
16294;SDS011;8255;49.560;8.244;2022-07-19T15:00:03;2.25;;;2.10;;
16294;SDS011;8255;49.560;8.244;2022-07-19T15:02:29;2.63;;;2.20;;
16294;SDS011;8255;49.560;8.244;2022-07-19T15:04:56;3.45;;;2.30;;